createdAt,value
2022-09-30T00:02:05.844Z,99654.84
2022-09-30T00:04:35.315Z,99663.19
2022-09-30T00:07:04.928Z,99665.91
2022-09-30T00:09:34.568Z,99672.00
2022-09-30T00:12:04.678Z,99660.22
2022-09-30T00:14:36.694Z,99672.38
2022-09-30T00:17:06.107Z,99666.31
2022-09-30T00:19:35.544Z,99674.22
2022-09-30T00:22:05.000Z,99674.47
2022-09-30T00:24:34.412Z,99688.44
2022-09-30T00:27:03.834Z,99687.03
2022-09-30T00:29:36.110Z,99691.09
2022-09-30T00:32:05.629Z,99682.38
2022-09-30T00:34:35.069Z,99681.75
2022-09-30T00:37:04.770Z,99685.44
2022-09-30T00:39:35.175Z,99690.13
2022-09-30T00:42:06.596Z,99694.63
2022-09-30T00:44:56.062Z,99684.28
2022-09-30T00:47:48.128Z,99693.41
2022-09-30T00:50:28.109Z,99683.88
2022-09-30T00:52:59.983Z,99690.38
2022-09-30T00:55:38.416Z,99689.59
2022-09-30T00:58:09.016Z,99687.34
2022-09-30T01:00:41.121Z,99685.53
2022-09-30T01:03:10.583Z,99693.66
2022-09-30T01:05:40.087Z,99696.09
2022-09-30T01:08:09.549Z,99697.13
2022-09-30T01:10:38.968Z,99692.03
2022-09-30T01:13:08.391Z,99695.91
2022-09-30T01:15:47.266Z,99703.38
2022-09-30T01:18:21.312Z,99712.94
2022-09-30T01:21:02.438Z,99708.50
2022-09-30T01:23:50.619Z,99720.66
2022-09-30T01:26:31.097Z,99717.41
2022-09-30T01:29:15.280Z,99716.19
2022-09-30T01:31:52.396Z,99712.75
2022-09-30T01:34:26.453Z,99715.16
2022-09-30T01:37:04.823Z,99709.50
2022-09-30T01:39:39.999Z,99707.47
2022-09-30T01:42:13.519Z,99711.72
2022-09-30T01:44:48.591Z,99711.31
2022-09-30T01:47:23.037Z,99711.94
2022-09-30T01:49:53.773Z,99706.84
2022-09-30T01:52:25.961Z,99712.34
2022-09-30T01:54:57.093Z,99710.69
2022-09-30T01:57:26.918Z,99713.13
2022-09-30T01:59:59.140Z,99710.50
2022-09-30T02:02:32.103Z,99715.78
2022-09-30T02:05:02.711Z,99714.56
2022-09-30T02:07:34.003Z,99714.16
2022-09-30T02:10:04.560Z,99718.63
2022-09-30T02:12:36.071Z,99720.03
2022-09-30T02:15:06.847Z,99722.28
2022-09-30T02:17:40.620Z,99720.00
2022-09-30T02:20:11.608Z,99712.28
2022-09-30T02:22:44.639Z,99722.63
2022-09-30T02:25:18.899Z,99721.81
2022-09-30T02:27:52.265Z,99719.78
2022-09-30T02:30:21.648Z,99724.47
2022-09-30T02:32:55.116Z,99729.09
2022-09-30T02:35:26.888Z,99740.47
2022-09-30T02:37:57.285Z,99739.41
2022-09-30T02:40:28.525Z,99739.22
2022-09-30T02:42:57.735Z,99747.75
2022-09-30T02:45:27.414Z,99747.16
2022-09-30T02:48:07.857Z,99753.63
2022-09-30T02:50:38.913Z,99753.63
2022-09-30T02:53:18.609Z,99750.38
2022-09-30T02:55:54.310Z,99751.59
2022-09-30T02:58:26.028Z,99746.69
2022-09-30T03:00:55.702Z,99747.31
2022-09-30T03:03:29.137Z,99745.84
2022-09-30T03:05:58.747Z,99745.03
2022-09-30T03:08:28.752Z,99742.59
2022-09-30T03:10:58.235Z,99744.41
2022-09-30T03:13:46.904Z,99745.84
2022-09-30T03:16:19.854Z,99747.66
2022-09-30T03:19:00.052Z,99759.00
2022-09-30T03:21:36.396Z,99761.03
2022-09-30T03:24:31.929Z,99761.63
2022-09-30T03:27:07.399Z,99770.31
2022-09-30T03:29:39.158Z,99766.69
2022-09-30T03:32:13.564Z,99770.53
2022-09-30T03:34:55.438Z,99770.31
2022-09-30T03:37:28.500Z,99766.03
2022-09-30T03:39:59.500Z,99776.75
2022-09-30T03:42:30.028Z,99784.25
2022-09-30T03:45:02.560Z,99778.41
2022-09-30T03:47:32.841Z,99787.94
2022-09-30T03:50:06.083Z,99790.75
2022-09-30T03:52:35.530Z,99783.03
2022-09-30T03:55:08.652Z,99781.00
2022-09-30T03:57:38.146Z,99789.28
2022-09-30T04:00:09.142Z,99785.22
2022-09-30T04:02:39.007Z,99792.31
2022-09-30T04:05:11.276Z,99795.75
2022-09-30T04:07:40.688Z,99799.81
2022-09-30T04:10:11.231Z,99802.63
2022-09-30T04:12:40.660Z,99801.59
2022-09-30T04:15:11.311Z,99803.63
2022-09-30T04:17:40.749Z,99806.84
2022-09-30T04:20:12.879Z,99813.75
2022-09-30T04:22:42.287Z,99808.66
2022-09-30T04:25:12.280Z,99816.56
2022-09-30T04:27:41.721Z,99820.44
2022-09-30T04:30:12.176Z,99824.66
2022-09-30T04:32:42.060Z,99821.00
2022-09-30T04:35:14.258Z,99823.03
2022-09-30T04:37:47.008Z,99817.75
2022-09-30T04:40:17.234Z,99821.78
2022-09-30T04:42:47.644Z,99826.22
2022-09-30T04:45:17.211Z,99823.59
2022-09-30T04:47:47.415Z,99832.06
2022-09-30T04:50:19.673Z,99829.59
2022-09-30T04:52:49.079Z,99838.28
2022-09-30T04:55:18.594Z,99838.28
2022-09-30T04:57:48.025Z,99836.84
2022-09-30T05:00:17.466Z,99852.22
2022-09-30T05:02:47.406Z,99853.66
2022-09-30T05:05:19.761Z,99851.84
2022-09-30T05:07:49.185Z,99847.97
2022-09-30T05:10:19.159Z,99855.69
2022-09-30T05:12:48.942Z,99864.38
2022-09-30T05:15:18.371Z,99862.13
2022-09-30T05:17:48.011Z,99871.84
2022-09-30T05:20:22.011Z,99886.78
2022-09-30T05:22:56.082Z,99885.81
2022-09-30T05:25:26.189Z,99894.69
2022-09-30T05:27:55.744Z,99891.69
2022-09-30T05:30:25.160Z,99896.75
2022-09-30T05:32:54.628Z,99901.19
2022-09-30T05:35:26.641Z,99899.75
2022-09-30T05:37:56.081Z,99907.66
2022-09-30T05:40:25.512Z,99908.66
2022-09-30T05:42:54.920Z,99911.13
2022-09-30T05:45:24.374Z,99916.19
2022-09-30T05:47:54.669Z,99915.97
2022-09-30T05:50:27.042Z,99910.97
2022-09-30T05:52:57.517Z,99907.13
2022-09-30T05:55:27.293Z,99915.69
2022-09-30T05:57:56.731Z,99915.69
2022-09-30T06:00:26.448Z,99924.00
2022-09-30T06:02:55.889Z,99926.72
2022-09-30T06:05:27.941Z,99923.88
2022-09-30T06:07:57.363Z,99926.31
2022-09-30T06:10:26.777Z,99935.66
2022-09-30T06:12:56.242Z,99943.38
2022-09-30T06:15:25.709Z,99938.72
2022-09-30T06:17:55.692Z,99940.78
2022-09-30T06:20:27.761Z,99929.25
2022-09-30T06:22:57.333Z,99934.59
2022-09-30T06:25:27.942Z,99936.63
2022-09-30T06:27:57.401Z,99942.97
2022-09-30T06:30:29.464Z,99947.47
2022-09-30T06:33:01.317Z,99948.31
2022-09-30T06:35:33.322Z,99949.56
2022-09-30T06:38:02.754Z,99950.59
2022-09-30T06:40:32.192Z,99946.22
2022-09-30T06:43:02.165Z,99944.22
2022-09-30T06:45:33.416Z,99953.63
2022-09-30T06:48:03.379Z,99946.03
2022-09-30T06:50:35.548Z,99954.78
2022-09-30T06:53:06.243Z,99949.84
2022-09-30T06:55:36.606Z,99952.91
2022-09-30T06:58:06.201Z,99958.91
2022-09-30T07:00:36.656Z,99967.13
2022-09-30T07:03:09.795Z,99965.00
2022-09-30T07:05:41.805Z,99978.97
2022-09-30T07:08:11.217Z,99973.63
2022-09-30T07:10:40.893Z,99973.50
2022-09-30T07:13:10.836Z,99979.75
2022-09-30T07:15:40.348Z,99978.59
2022-09-30T07:18:11.874Z,99986.38
2022-09-30T07:20:43.928Z,99987.06
2022-09-30T07:23:13.350Z,99988.97
2022-09-30T07:25:42.790Z,99978.25
2022-09-30T07:28:14.110Z,99982.13
2022-09-30T07:30:47.228Z,99987.22
2022-09-30T07:33:17.097Z,99988.00
2022-09-30T07:35:55.672Z,99987.50
2022-09-30T07:38:25.847Z,99999.28
2022-09-30T07:40:57.068Z,99997.41
2022-09-30T07:43:28.018Z,99984.91
2022-09-30T07:45:58.099Z,99985.53
2022-09-30T07:48:40.050Z,99979.19
2022-09-30T07:51:12.985Z,99988.63
2022-09-30T07:53:42.892Z,99988.94
2022-09-30T07:56:12.498Z,99986.78
2022-09-30T07:58:42.159Z,99989.50
2022-09-30T08:01:11.687Z,99996.00
2022-09-30T08:03:41.998Z,100002.41
2022-09-30T08:06:14.773Z,100010.13
2022-09-30T08:08:44.270Z,99995.19
2022-09-30T08:11:14.029Z,99999.94
2022-09-30T08:13:46.241Z,100000.38
2022-09-30T08:16:15.706Z,100005.84
2022-09-30T08:18:45.141Z,99997.50
2022-09-30T08:21:17.178Z,100007.22
2022-09-30T08:23:46.602Z,100009.78
2022-09-30T08:26:16.782Z,100013.13
2022-09-30T08:28:47.127Z,100017.25
2022-09-30T08:31:17.758Z,100014.97
2022-09-30T08:33:47.251Z,100019.19
2022-09-30T08:36:20.188Z,100023.59
2022-09-30T08:38:49.620Z,100030.69
2022-09-30T08:41:26.019Z,100027.69
2022-09-30T08:44:01.076Z,100025.53
2022-09-30T08:46:35.508Z,100024.94
2022-09-30T08:49:21.039Z,100022.66
2022-09-30T08:51:53.188Z,100032.25
2022-09-30T08:54:25.515Z,100034.63
2022-09-30T08:56:54.952Z,100033.44
2022-09-30T08:59:30.927Z,100036.38
2022-09-30T09:02:04.162Z,100037.19
2022-09-30T09:04:33.712Z,100040.78
2022-09-30T09:07:09.805Z,100044.72
2022-09-30T09:09:46.130Z,100043.53
2022-09-30T09:12:27.544Z,100051.69
2022-09-30T09:15:04.415Z,100055.78
2022-09-30T09:17:54.177Z,100045.44
2022-09-30T09:20:34.738Z,100048.69
2022-09-30T09:23:06.790Z,100058.63
2022-09-30T09:25:36.236Z,100053.03
2022-09-30T09:28:06.559Z,100057.47
2022-09-30T09:30:39.370Z,100059.47
2022-09-30T09:33:20.350Z,100049.59
2022-09-30T09:35:51.285Z,100052.69
2022-09-30T09:38:31.814Z,100049.78
2022-09-30T09:41:10.960Z,100052.94
2022-09-30T09:43:51.428Z,100051.84
2022-09-30T09:46:24.768Z,100048.97
2022-09-30T09:49:13.776Z,100058.75
2022-09-30T09:51:47.202Z,100044.75
2022-09-30T09:54:21.205Z,100045.91
2022-09-30T09:56:53.021Z,100048.22
2022-09-30T09:59:23.106Z,100053.72
2022-09-30T10:01:54.246Z,100049.09
2022-09-30T10:04:25.338Z,100057.59
2022-09-30T10:06:56.064Z,100047.97
2022-09-30T10:09:38.023Z,100050.41
2022-09-30T10:12:31.174Z,100042.50
2022-09-30T10:15:03.232Z,100049.84
2022-09-30T10:17:33.371Z,100051.00
2022-09-30T10:20:06.309Z,100050.88
2022-09-30T10:22:36.241Z,100043.13
2022-09-30T10:25:21.443Z,100050.16
2022-09-30T10:27:53.252Z,100042.38
2022-09-30T10:30:37.285Z,100044.75
2022-09-30T10:33:06.831Z,100040.66
2022-09-30T10:35:36.250Z,100044.09
2022-09-30T10:38:06.160Z,100041.81
2022-09-30T10:40:38.182Z,100042.38
2022-09-30T10:43:08.130Z,100035.31
2022-09-30T10:45:41.289Z,100038.81
2022-09-30T10:48:16.165Z,100032.22
2022-09-30T10:50:47.149Z,100022.44
2022-09-30T10:53:18.550Z,100041.59
2022-09-30T10:55:50.720Z,100045.09
2022-09-30T10:58:25.998Z,100034.66
2022-09-30T11:00:57.749Z,100031.19
2022-09-30T11:03:29.757Z,100037.94
2022-09-30T11:05:59.307Z,100033.41
2022-09-30T11:08:31.865Z,100034.81
2022-09-30T11:11:10.241Z,100033.13
2022-09-30T11:13:41.026Z,100030.78
2022-09-30T11:16:15.208Z,100034.59
2022-09-30T11:18:46.316Z,100027.44
2022-09-30T11:21:15.787Z,100022.25
2022-09-30T11:23:47.258Z,100023.25
2022-09-30T11:26:23.453Z,100024.44
2022-09-30T11:28:59.098Z,100019.72
2022-09-30T11:31:33.036Z,100018.44
2022-09-30T11:34:21.775Z,100023.09
2022-09-30T11:36:54.072Z,100011.25
2022-09-30T11:40:00.352Z,100011.25
2022-09-30T11:42:35.893Z,100015.63
2022-09-30T11:45:09.082Z,100021.97
2022-09-30T11:47:53.598Z,100014.53
2022-09-30T11:50:35.258Z,100014.91
2022-09-30T11:53:14.399Z,100014.13
2022-09-30T11:55:49.529Z,100011.56
2022-09-30T11:58:40.533Z,100017.31
2022-09-30T12:01:17.837Z,100010.09
2022-09-30T12:03:49.106Z,100008.56
2022-09-30T12:06:21.172Z,100013.59
2022-09-30T12:08:52.264Z,100006.88
2022-09-30T12:11:21.863Z,100008.38
2022-09-30T12:13:54.920Z,100000.44
2022-09-30T12:16:26.868Z,100003.66
2022-09-30T12:18:58.138Z,100012.34
2022-09-30T12:21:28.210Z,100010.34
2022-09-30T12:23:59.533Z,100006.00
2022-09-30T12:26:29.266Z,100008.84
2022-09-30T12:29:15.882Z,100003.44
2022-09-30T12:31:58.892Z,100011.59
2022-09-30T12:34:36.803Z,100017.38
2022-09-30T12:37:17.519Z,100014.53
2022-09-30T12:39:57.773Z,100015.47
2022-09-30T12:42:35.763Z,100018.00
2022-09-30T12:45:30.286Z,100005.88
2022-09-30T12:48:00.186Z,100013.13
2022-09-30T12:50:30.920Z,100012.63
2022-09-30T12:53:01.594Z,100009.84
2022-09-30T12:55:32.801Z,100014.50
2022-09-30T12:58:02.973Z,100009.19
2022-09-30T13:00:37.715Z,100013.34
2022-09-30T13:03:08.702Z,100017.00
2022-09-30T13:05:50.225Z,100018.41
2022-09-30T13:08:45.404Z,100017.72
2022-09-30T13:11:34.408Z,100021.06
2022-09-30T13:14:13.508Z,100017.34
2022-09-30T13:17:05.370Z,100007.28
2022-09-30T13:19:36.489Z,100014.69
2022-09-30T13:22:36.227Z,100012.38
2022-09-30T13:25:06.772Z,100005.03
2022-09-30T13:27:36.605Z,100002.94
2022-09-30T13:30:08.920Z,100001.97
2022-09-30T13:32:42.308Z,99999.47
2022-09-30T13:35:34.012Z,99991.28
2022-09-30T13:38:20.151Z,99987.28
2022-09-30T13:41:01.962Z,99986.19
2022-09-30T13:43:34.461Z,100000.72
2022-09-30T13:46:09.087Z,100002.22
2022-09-30T13:48:42.152Z,99989.25
2022-09-30T13:51:14.848Z,100006.00
2022-09-30T13:53:46.344Z,99995.94
2022-09-30T13:56:19.346Z,99996.19
2022-09-30T13:59:22.322Z,99999.28
2022-09-30T14:02:10.406Z,100000.25
2022-09-30T14:05:19.138Z,99987.75
2022-09-30T14:07:54.267Z,99995.50
2022-09-30T14:10:40.961Z,99990.69
2022-09-30T14:13:27.754Z,99994.88
2022-09-30T14:16:06.751Z,99987.31
2022-09-30T14:18:45.178Z,99993.00
2022-09-30T14:21:25.829Z,99988.44
2022-09-30T14:24:00.286Z,99988.75
2022-09-30T14:26:41.981Z,99984.25
2022-09-30T14:29:14.121Z,99985.44
2022-09-30T14:31:46.874Z,99980.59
2022-09-30T14:34:17.103Z,99985.31
2022-09-30T14:36:49.588Z,99981.25
2022-09-30T14:39:20.019Z,99975.97
2022-09-30T14:41:52.099Z,99966.69
2022-09-30T14:44:23.027Z,99966.44
2022-09-30T14:46:55.065Z,99977.28
2022-09-30T14:49:29.968Z,99968.50
2022-09-30T14:52:03.472Z,99961.19
2022-09-30T14:54:33.794Z,99955.63
2022-09-30T14:57:04.487Z,99948.22
2022-09-30T14:59:35.256Z,99950.44
2022-09-30T15:02:05.679Z,99949.00
2022-09-30T15:04:36.401Z,99949.56
2022-09-30T15:07:12.177Z,99944.38
2022-09-30T15:09:43.513Z,99950.16
2022-09-30T15:12:14.249Z,99961.19
2022-09-30T15:14:48.942Z,99954.28
2022-09-30T15:17:21.421Z,99951.06
2022-09-30T15:19:50.979Z,99957.69
2022-09-30T15:22:23.064Z,99952.63
2022-09-30T15:24:52.656Z,99946.91
2022-09-30T15:27:23.528Z,99943.63
2022-09-30T15:29:59.856Z,99943.56
2022-09-30T15:32:29.730Z,99948.00
2022-09-30T15:35:00.071Z,99942.91
2022-09-30T15:37:33.841Z,99947.16
2022-09-30T15:40:16.632Z,99939.94
2022-09-30T15:42:49.351Z,99939.69
2022-09-30T15:45:34.994Z,99939.47
2022-09-30T15:48:07.055Z,99942.75
2022-09-30T15:50:41.187Z,99942.06
2022-09-30T15:53:25.184Z,99934.94
2022-09-30T15:55:55.719Z,99946.56
2022-09-30T15:58:37.814Z,99945.94
2022-09-30T16:01:16.617Z,99941.47
2022-09-30T16:03:54.318Z,99940.59
2022-09-30T16:06:28.920Z,99949.53
2022-09-30T16:09:02.268Z,99941.84
2022-09-30T16:11:36.630Z,99940.94
2022-09-30T16:14:07.336Z,99942.34
2022-09-30T16:16:37.785Z,99941.44
2022-09-30T16:19:07.711Z,99946.84
2022-09-30T16:21:50.784Z,99947.94
2022-09-30T16:24:48.452Z,99949.56
2022-09-30T16:27:30.264Z,99948.72
2022-09-30T16:30:00.577Z,99946.78
2022-09-30T16:32:30.925Z,99946.28
2022-09-30T16:35:00.465Z,99960.31
2022-09-30T16:37:29.904Z,99953.31
2022-09-30T16:40:04.616Z,99951.97
2022-09-30T16:42:34.404Z,99950.38
2022-09-30T16:45:04.477Z,99956.53
2022-09-30T16:47:33.944Z,99958.66
2022-09-30T16:50:03.393Z,99954.06
2022-09-30T16:52:32.874Z,99962.28
2022-09-30T16:55:04.967Z,99960.88
2022-09-30T16:57:34.482Z,99958.19
2022-09-30T17:00:04.433Z,99954.63
2022-09-30T17:02:34.020Z,99955.88
2022-09-30T17:05:03.508Z,99965.47
2022-09-30T17:07:33.527Z,99963.56
2022-09-30T17:10:05.630Z,99975.50
2022-09-30T17:12:35.046Z,99974.06
2022-09-30T17:15:04.495Z,99979.03
2022-09-30T17:17:33.930Z,99979.81
2022-09-30T17:20:03.876Z,99978.00
2022-09-30T17:22:33.304Z,99987.81
2022-09-30T17:25:05.346Z,99988.56
2022-09-30T17:27:34.757Z,99992.22
2022-09-30T17:30:04.265Z,99986.00
2022-09-30T17:32:33.711Z,99993.13
2022-09-30T17:35:03.179Z,99993.31
2022-09-30T17:37:32.883Z,100001.81
2022-09-30T17:40:25.786Z,99999.06
2022-09-30T17:43:07.596Z,100003.50
2022-09-30T17:45:37.076Z,100008.53
2022-09-30T17:48:07.878Z,100004.41
2022-09-30T17:50:37.583Z,100006.50
2022-09-30T17:53:07.742Z,100010.72
2022-09-30T17:55:39.816Z,100026.09
2022-09-30T17:58:09.689Z,100024.94
2022-09-30T18:00:39.118Z,100022.78
2022-09-30T18:03:09.322Z,100033.44
2022-09-30T18:05:38.952Z,100026.75
2022-09-30T18:08:08.660Z,100030.06
2022-09-30T18:10:41.385Z,100028.38
2022-09-30T18:13:11.556Z,100034.44
2022-09-30T18:15:41.642Z,100030.13
2022-09-30T18:18:11.054Z,100026.59
2022-09-30T18:20:44.905Z,100018.50
2022-09-30T18:23:14.373Z,100016.56
2022-09-30T18:25:46.458Z,100020.50
2022-09-30T18:28:16.037Z,100012.28
2022-09-30T18:30:46.665Z,100016.94
2022-09-30T18:33:17.440Z,100015.56
2022-09-30T18:35:47.511Z,100021.59
2022-09-30T18:38:17.103Z,100023.25
2022-09-30T18:40:49.985Z,100025.72
2022-09-30T18:43:20.765Z,100025.47
2022-09-30T18:45:56.243Z,100030.13
2022-09-30T18:48:26.224Z,100026.75
2022-09-30T18:50:55.639Z,100036.00
2022-09-30T18:53:25.267Z,100033.94
2022-09-30T18:55:57.293Z,100031.75
2022-09-30T18:58:27.364Z,100031.28
2022-09-30T19:00:56.849Z,100030.16
2022-09-30T19:03:26.997Z,100032.09
2022-09-30T19:05:56.434Z,100029.31
2022-09-30T19:08:26.833Z,100025.03
2022-09-30T19:10:59.169Z,100022.97
2022-09-30T19:13:29.840Z,100023.63
2022-09-30T19:16:05.689Z,100035.31
2022-09-30T19:18:35.125Z,100031.50
2022-09-30T19:21:10.031Z,100032.16
2022-09-30T19:23:39.649Z,100039.00
2022-09-30T19:26:14.368Z,100043.38
2022-09-30T19:28:43.813Z,100046.09
2022-09-30T19:31:15.294Z,100037.75
2022-09-30T19:33:54.512Z,100042.72
2022-09-30T19:36:26.881Z,100055.75
2022-09-30T19:39:10.097Z,100070.78
2022-09-30T19:41:46.268Z,100062.66
2022-09-30T19:44:19.307Z,100057.44
2022-09-30T19:46:50.934Z,100062.97
2022-09-30T19:49:21.670Z,100063.19
2022-09-30T19:51:52.583Z,100073.00
2022-09-30T19:54:36.133Z,100075.53
2022-09-30T19:57:12.029Z,100081.50
2022-09-30T19:59:41.441Z,100081.13
2022-09-30T20:02:12.344Z,100074.19
2022-09-30T20:04:43.765Z,100067.94
2022-09-30T20:07:16.214Z,100066.31
2022-09-30T20:09:46.552Z,100059.97
2022-09-30T20:12:18.572Z,100060.06
2022-09-30T20:15:00.473Z,100050.09
2022-09-30T20:17:30.909Z,100053.94
2022-09-30T20:20:12.854Z,100049.28
2022-09-30T20:22:42.308Z,100058.34
2022-09-30T20:25:12.831Z,100063.91
2022-09-30T20:27:51.063Z,100063.59
2022-09-30T20:30:21.490Z,100065.28
2022-09-30T20:32:50.995Z,100064.69
2022-09-30T20:35:21.296Z,100061.81
2022-09-30T20:37:51.705Z,100065.28
2022-09-30T20:40:21.110Z,100065.84
2022-09-30T20:42:54.023Z,100073.25
2022-09-30T20:45:26.525Z,100072.25
2022-09-30T20:47:56.884Z,100077.63
2022-09-30T20:50:37.525Z,100077.25
2022-09-30T20:53:11.881Z,100084.22
2022-09-30T20:55:43.420Z,100091.59
2022-09-30T20:58:15.432Z,100086.50
2022-09-30T21:00:45.130Z,100084.28
2022-09-30T21:03:15.502Z,100078.22
2022-09-30T21:05:44.908Z,100083.75
2022-09-30T21:08:14.329Z,100085.19
2022-09-30T21:10:43.743Z,100079.72
2022-09-30T21:13:16.004Z,100077.72
2022-09-30T21:15:45.421Z,100067.13
2022-09-30T21:18:14.845Z,100060.22
2022-09-30T21:20:44.380Z,100046.94
2022-09-30T21:23:17.252Z,100051.00
2022-09-30T21:25:49.061Z,100043.84
2022-09-30T21:28:22.357Z,100052.66
2022-09-30T21:30:51.963Z,100046.78
2022-09-30T21:33:22.125Z,100045.16
2022-09-30T21:35:52.284Z,100047.00
2022-09-30T21:38:25.119Z,100045.00
2022-09-30T21:41:00.470Z,100044.69
2022-09-30T21:43:34.127Z,100040.81
2022-09-30T21:46:04.578Z,100045.75
2022-09-30T21:48:35.223Z,100047.00
2022-09-30T21:51:04.823Z,100038.44
2022-09-30T21:53:34.269Z,100037.25
2022-09-30T21:56:04.451Z,100037.84
2022-09-30T21:58:36.874Z,100033.75
2022-09-30T22:01:07.261Z,100030.72
2022-09-30T22:03:38.825Z,100030.34
2022-09-30T22:06:09.600Z,100024.50
2022-09-30T22:08:40.787Z,100028.59
2022-09-30T22:11:11.190Z,100033.25
2022-09-30T22:13:45.098Z,100038.81
2022-09-30T22:16:19.798Z,100044.88
2022-09-30T22:18:49.355Z,100039.22
2022-09-30T22:21:18.787Z,100035.53
2022-09-30T22:23:49.038Z,100040.25
2022-09-30T22:26:19.611Z,100041.47
2022-09-30T22:28:55.591Z,100045.97
2022-09-30T22:31:26.037Z,100039.25
2022-09-30T22:34:09.101Z,100025.22
2022-09-30T22:36:51.063Z,100020.31
2022-09-30T22:39:20.811Z,100024.03
2022-09-30T22:41:50.316Z,100025.03
2022-09-30T22:44:23.744Z,100026.09
2022-09-30T22:46:53.471Z,100020.63
2022-09-30T22:49:23.173Z,100023.06
2022-09-30T22:51:52.782Z,100022.06
2022-09-30T22:54:22.319Z,100035.13
2022-09-30T22:56:51.878Z,100035.97
2022-09-30T22:59:24.123Z,100042.69
2022-09-30T23:01:53.583Z,100029.88
2022-09-30T23:04:23.500Z,100033.59
2022-09-30T23:06:53.782Z,100030.16
2022-09-30T23:09:23.389Z,100029.97
2022-09-30T23:11:54.485Z,100022.06
2022-09-30T23:14:26.660Z,100025.34
2022-09-30T23:16:56.141Z,100024.50
2022-09-30T23:19:25.668Z,100019.59
2022-09-30T23:21:55.112Z,100021.41
2022-09-30T23:24:24.579Z,100024.44
2022-09-30T23:26:54.059Z,100012.88
2022-09-30T23:29:26.137Z,100013.88
2022-09-30T23:31:55.614Z,100015.91
2022-09-30T23:34:25.136Z,100013.25
2022-09-30T23:36:54.624Z,100011.19
2022-09-30T23:39:24.109Z,100012.25
2022-09-30T23:41:53.560Z,100005.22
2022-09-30T23:44:24.536Z,100007.66
2022-09-30T23:47:09.085Z,100002.13
2022-09-30T23:49:38.965Z,100000.50
2022-09-30T23:52:12.753Z,100012.50
2022-09-30T23:54:42.746Z,99995.44
2022-09-30T23:57:12.356Z,99997.94
2022-09-30T23:59:41.915Z,99998.53
